Heydar Aliyev — 9HFS7 — position and weather

sailwx.info

Track history (hours):
 
Tides and Currents Weather Stations Pressure Air Temp Water Temp Dewpoint Dewpoint Depression Visibility Wind Speed Wind Dir Waves Ship Positions

Heydar Aliyev

Last reported at 2015-Jun-08 01:05 UTC. Time now 2015-Jun-30 21:29 UTC.
Position N 02°05' E 102°08'.
Warning: this ship's position is 22 days out of date.

Length 274 m; draft 9.3 m.

Type: Tanker. MMSI: 215213000.

Date/timePositionNaut miles runAvg speedWind from/ knotsBaromVisibWave heightAir tempDewpointWater temp
2015-Jun-08 01:05N 02°05' E 102°08'714.0
2015-Jun-08 00:33N 02°00' E 102°13'1514.6
2015-Jun-07 23:33N 01°53' E 102°26'1515.3
2015-Jun-07 22:33N 01°46' E 102°40'6414.3
2015-Jun-07 18:06N 01°12' E 103°34'611.4
2015-Jun-07 17:33N 01°11' E 103°40'2 0.2
2015-Jun-07 07:20N 01°11' E 103°41'0 0.0
2015-Jun-07 04:14N 01°11' E 103°41'0 0.1
2015-Jun-07 03:29N 01°11' E 103°41'6 1.6
2015-Jun-06 23:32N 01°17' E 103°44'1 0.6
2015-Jun-06 22:33N 01°18' E 103°44'0 0.0
2015-Jun-06 21:24N 01°18' E 103°44'0 0.0
2015-Jun-06 11:18N 01°18' E 103°44'0 0.0
2015-Jun-06 05:24N 01°18' E 103°44'0 0.0
2015-Jun-06 02:24N 01°18' E 103°44'0 0.0
2015-Jun-06 01:12N 01°18' E 103°44'0 0.0
2015-Jun-05 19:06N 01°18' E 103°44'0 0.0
2015-Jun-05 18:24N 01°18' E 103°44'0 0.0
2015-Jun-05 16:12N 01°18' E 103°44'0 0.0
2015-Jun-05 04:30N 01°18' E 103°44'0 0.0
2015-Jun-05 02:18N 01°18' E 103°44'0 0.0
2015-Jun-05 00:06N 01°18' E 103°45'0 0.0
2015-Jun-04 22:30N 01°18' E 103°44'0 0.0
2015-Jun-04 21:30N 01°18' E 103°44'0 0.0
2015-Jun-04 19:12N 01°18' E 103°44'0 0.0
2015-Jun-04 18:12N 01°18' E 103°44'0 0.0
2015-Jun-04 17:12N 01°18' E 103°44'0 0.0
2015-Jun-04 16:30N 01°18' E 103°44'0 0.0
2015-Jun-04 15:18N 01°18' E 103°44'0 0.0
2015-Jun-04 11:24N 01°18' E 103°44'0 0.0
2015-Jun-04 10:18N 01°18' E 103°44'0 0.0
2015-Jun-04 07:24N 01°18' E 103°44'0 0.0
2015-Jun-04 02:33N 01°18' E 103°44'2 1.8
2015-Jun-04 01:33N 01°16' E 103°46'7 1.1
2015-Jun-03 19:33N 01°12' E 103°40'  
2015-Jun-01 02:20N 01°52' E 102°18'1512.5
2015-Jun-01 01:08N 01°59' E 102°05'  
Track history (hours):
 
Tides and Currents Weather Stations Pressure Air Temp Water Temp Dewpoint Dewpoint Depression Visibility Wind Speed Wind Dir Waves Ship Positions

Heydar Aliyev

Last reported at 2015-Jun-08 01:05 UTC. Time now 2015-Jun-30 21:29 UTC.
Position N 02°05' E 102°08'.
Warning: this ship's position is 22 days out of date.

Length 274 m; draft 9.3 m.

Type: Tanker. MMSI: 215213000.

Date/timePositionNaut miles runAvg speedWind from/ knotsBaromVisibWave heightAir tempDewpointWater temp
2015-Jun-08 01:05N 02°05' E 102°08'714.0
2015-Jun-08 00:33N 02°00' E 102°13'1514.6
2015-Jun-07 23:33N 01°53' E 102°26'1515.3
2015-Jun-07 22:33N 01°46' E 102°40'6414.3
2015-Jun-07 18:06N 01°12' E 103°34'611.4
2015-Jun-07 17:33N 01°11' E 103°40'2 0.2
2015-Jun-07 07:20N 01°11' E 103°41'0 0.0
2015-Jun-07 04:14N 01°11' E 103°41'0 0.1
2015-Jun-07 03:29N 01°11' E 103°41'6 1.6
2015-Jun-06 23:32N 01°17' E 103°44'1 0.6
2015-Jun-06 22:33N 01°18' E 103°44'0 0.0
2015-Jun-06 21:24N 01°18' E 103°44'0 0.0
2015-Jun-06 11:18N 01°18' E 103°44'0 0.0
2015-Jun-06 05:24N 01°18' E 103°44'0 0.0
2015-Jun-06 02:24N 01°18' E 103°44'0 0.0
2015-Jun-06 01:12N 01°18' E 103°44'0 0.0
2015-Jun-05 19:06N 01°18' E 103°44'0 0.0
2015-Jun-05 18:24N 01°18' E 103°44'0 0.0
2015-Jun-05 16:12N 01°18' E 103°44'0 0.0
2015-Jun-05 04:30N 01°18' E 103°44'0 0.0
2015-Jun-05 02:18N 01°18' E 103°44'0 0.0
2015-Jun-05 00:06N 01°18' E 103°45'0 0.0
2015-Jun-04 22:30N 01°18' E 103°44'0 0.0
2015-Jun-04 21:30N 01°18' E 103°44'0 0.0
2015-Jun-04 19:12N 01°18' E 103°44'0 0.0
2015-Jun-04 18:12N 01°18' E 103°44'0 0.0
2015-Jun-04 17:12N 01°18' E 103°44'0 0.0
2015-Jun-04 16:30N 01°18' E 103°44'0 0.0
2015-Jun-04 15:18N 01°18' E 103°44'0 0.0
2015-Jun-04 11:24N 01°18' E 103°44'0 0.0
2015-Jun-04 10:18N 01°18' E 103°44'0 0.0
2015-Jun-04 07:24N 01°18' E 103°44'0 0.0
2015-Jun-04 02:33N 01°18' E 103°44'2 1.8
2015-Jun-04 01:33N 01°16' E 103°46'7 1.1
2015-Jun-03 19:33N 01°12' E 103°40'  
2015-Jun-01 02:20N 01°52' E 102°18'1512.5
2015-Jun-01 01:08N 01°59' E 102°05'  

Dump ship's entire track history